Time;durP1;ratioP1;P1;durP2;ratioP2;P2;SDS_P1;SDS_P2;PMS_P1;PMS_P2;Temp;Humidity;BMP_temperature;BMP_pressure;BME280_temperature;BME280_humidity;BME280_pressure;Samples;Min_cycle;Max_cycle;Signal;HPM_P1;HPM_P2
2021/03/06 00:00:26;;;;;;;8.88;7.95;;;-0.10;99.90;;;;;;5058641;28;20178;-74
2021/03/06 00:02:55;;;;;;;9.25;8.35;;;0.00;99.90;;;;;;5093466;28;20610;-75
2021/03/06 00:05:23;;;;;;;9.48;7.38;;;-0.10;99.90;;;;;;5075358;28;20188;-76
2021/03/06 00:07:54;;;;;;;9.43;7.18;;;-0.40;99.90;;;;;;5074857;28;20218;-74
2021/03/06 00:10:21;;;;;;;8.88;7.28;;;-0.40;99.90;;;;;;5075548;28;20183;-74
2021/03/06 00:12:48;;;;;;;10.05;7.43;;;-0.70;99.90;;;;;;5075341;28;20604;-74
2021/03/06 00:15:27;;;;;;;11.05;7.78;;;-0.20;99.90;;;;;;5075711;28;20172;-75
2021/03/06 00:17:54;;;;;;;8.32;6.95;;;-0.40;99.90;;;;;;5074962;28;20630;-74
2021/03/06 00:20:24;;;;;;;9.25;7.82;;;-0.40;99.90;;;;;;5092857;28;20553;-75
2021/03/06 00:22:50;;;;;;;8.40;7.60;;;-0.40;99.90;;;;;;5093195;28;20322;-74
2021/03/06 00:25:17;;;;;;;10.20;7.22;;;-0.40;99.90;;;;;;5075053;28;20155;-75
2021/03/06 00:27:46;;;;;;;12.38;8.23;;;-0.50;99.90;;;;;;5075580;28;20198;-75
2021/03/06 00:30:14;;;;;;;9.63;7.97;;;-0.40;99.90;;;;;;5074847;28;20179;-75
2021/03/06 00:32:44;;;;;;;8.45;7.13;;;-0.50;99.90;;;;;;5058166;28;20203;-74
2021/03/06 00:35:13;;;;;;;8.82;7.65;;;-0.70;99.90;;;;;;5074377;28;20187;-74
2021/03/06 00:37:42;;;;;;;10.30;7.55;;;-0.50;99.90;;;;;;5059498;28;20394;-74
2021/03/06 00:40:10;;;;;;;8.90;6.95;;;-0.70;99.90;;;;;;5075786;28;20285;-74
2021/03/06 00:42:37;;;;;;;8.93;7.55;;;-0.40;99.90;;;;;;5090667;28;20222;-77
2021/03/06 00:45:05;;;;;;;9.90;7.57;;;-0.40;99.90;;;;;;5055317;28;20164;-74
2021/03/06 00:47:35;;;;;;;9.45;7.10;;;-0.60;99.90;;;;;;5073519;28;20183;-74
2021/03/06 00:50:11;;;;;;;8.00;7.20;;;-0.70;99.90;;;;;;5022128;28;20551;-74
2021/03/06 00:52:37;;;;;;;9.73;8.00;;;-0.70;99.90;;;;;;5038432;28;20207;-74
2021/03/06 00:55:05;;;;;;;8.02;7.07;;;-0.60;99.90;;;;;;5055333;28;20180;-74
2021/03/06 00:57:31;;;;;;;10.18;8.38;;;-0.60;99.90;;;;;;5038947;28;20184;-74
2021/03/06 00:59:59;;;;;;;8.45;7.45;;;-1.20;99.90;;;;;;5055253;28;20168;-75
2021/03/06 01:02:26;;;;;;;8.05;7.22;;;-0.80;99.90;;;;;;5054354;28;20215;-74
2021/03/06 01:04:57;;;;;;;7.82;6.82;;;-0.90;99.90;;;;;;5055032;28;20321;-74
2021/03/06 01:07:26;;;;;;;7.78;6.97;;;-0.80;99.90;;;;;;5057013;28;20291;-74
2021/03/06 01:09:55;;;;;;;7.30;6.40;;;-0.90;99.90;;;;;;5077419;28;20175;-74
2021/03/06 01:12:23;;;;;;;8.32;7.25;;;-0.80;99.90;;;;;;5078712;28;20203;-74
2021/03/06 01:14:49;;;;;;;11.20;7.30;;;-1.30;99.90;;;;;;5078751;28;20167;-75
2021/03/06 01:17:15;;;;;;;8.25;6.88;;;-0.80;99.90;;;;;;5077992;28;20183;-74
2021/03/06 01:19:41;;;;;;;12.07;7.73;;;-0.70;99.90;;;;;;5062487;28;20174;-75
2021/03/06 01:22:14;;;;;;;15.07;7.45;;;-0.80;99.90;;;;;;5063528;28;20519;-74
2021/03/06 01:24:42;;;;;;;10.97;7.83;;;-1.30;99.90;;;;;;5078333;28;20309;-75
2021/03/06 01:27:10;;;;;;;7.82;7.00;;;-1.00;99.90;;;;;;5079208;28;20445;-75
2021/03/06 01:29:36;;;;;;;10.15;7.78;;;-1.20;99.90;;;;;;5045519;28;20170;-74
2021/03/06 01:32:03;;;;;;;10.10;7.05;;;-1.40;99.90;;;;;;5078150;28;20206;-74
2021/03/06 01:34:31;;;;;;;8.60;7.05;;;-0.90;99.90;;;;;;5078934;28;20276;-74
2021/03/06 01:36:57;;;;;;;9.90;6.45;;;-1.50;99.90;;;;;;5078606;28;20633;-74
2021/03/06 01:39:27;;;;;;;8.68;6.72;;;-1.10;99.90;;;;;;5062748;28;20179;-74
2021/03/06 01:41:53;;;;;;;8.02;6.80;;;-1.20;99.90;;;;;;5061700;28;20197;-76
2021/03/06 01:44:19;;;;;;;8.23;6.80;;;-1.20;99.90;;;;;;5077980;28;20205;-74
2021/03/06 01:46:47;;;;;;;6.78;6.07;;;-1.40;99.90;;;;;;5095729;28;20175;-74
2021/03/06 01:49:18;;;;;;;7.88;7.07;;;-1.50;99.90;;;;;;5078982;28;20167;-75
2021/03/06 01:51:44;;;;;;;8.20;7.28;;;-1.20;99.90;;;;;;5078259;28;20546;-74
2021/03/06 01:54:14;;;;;;;8.18;6.50;;;-1.60;99.90;;;;;;5095544;28;20530;-74
2021/03/06 01:56:43;;;;;;;9.68;8.68;;;-1.50;99.90;;;;;;5096448;28;20523;-74
2021/03/06 01:59:09;;;;;;;10.07;7.25;;;-1.10;99.90;;;;;;5096067;28;20656;-74
2021/03/06 02:01:35;;;;;;;10.30;7.15;;;-1.20;99.90;;;;;;5077799;28;20281;-74
2021/03/06 02:04:01;;;;;;;6.95;6.18;;;-1.40;99.90;;;;;;5096000;28;20195;-75
2021/03/06 02:06:29;;;;;;;9.07;7.10;;;-1.10;99.90;;;;;;5078439;28;20159;-75
2021/03/06 02:08:55;;;;;;;7.40;6.68;;;-1.80;99.90;;;;;;5061770;28;20178;-74
2021/03/06 02:11:54;;;;;;;9.82;6.65;;;-1.30;99.90;;;;;;5061572;28;20221;-74
2021/03/06 02:14:44;;;;;;;8.68;7.03;;;-1.20;99.90;;;;;;5096037;28;20193;-74
2021/03/06 02:17:33;;;;;;;7.68;6.72;;;-1.20;99.90;;;;;;5059040;28;20211;-74
2021/03/06 02:20:16;;;;;;;9.35;7.57;;;-1.10;99.90;;;;;;5086117;28;20245;-74
2021/03/06 02:23:07;;;;;;;10.35;7.30;;;-1.40;99.90;;;;;;5060758;28;20683;-75
2021/03/06 02:26:02;;;;;;;9.43;7.10;;;-1.40;99.90;;;;;;5078304;28;20167;-74
2021/03/06 02:28:50;;;;;;;8.40;6.88;;;-1.20;99.90;;;;;;5074705;28;20780;-75
2021/03/06 02:31:17;;;;;;;16.75;7.95;;;-1.20;99.90;;;;;;5095634;28;20587;-74
2021/03/06 02:33:55;;;;;;;7.80;6.75;;;-1.10;99.90;;;;;;5060934;28;20167;-74
2021/03/06 02:36:25;;;;;;;9.18;6.95;;;-1.30;99.90;;;;;;5077990;28;20645;-74
2021/03/06 02:38:56;;;;;;;7.80;6.78;;;-1.60;99.90;;;;;;5095464;28;20206;-75
2021/03/06 02:41:26;;;;;;;9.07;7.03;;;-1.10;99.90;;;;;;5044481;28;20199;-74
2021/03/06 02:43:56;;;;;;;9.00;6.45;;;-1.30;99.90;;;;;;5076115;28;20214;-74
2021/03/06 02:46:27;;;;;;;9.73;6.55;;;-1.80;99.90;;;;;;5060265;28;20167;-74
2021/03/06 02:48:54;;;;;;;8.23;7.32;;;-1.70;99.90;;;;;;5076856;28;20163;-74
2021/03/06 02:51:21;;;;;;;9.20;6.63;;;-1.30;99.90;;;;;;5077194;28;20203;-75
2021/03/06 02:53:48;;;;;;;10.38;6.50;;;-1.50;99.90;;;;;;5095041;28;20221;-75
2021/03/06 02:56:19;;;;;;;8.57;7.00;;;-1.50;99.90;;;;;;5094666;28;20679;-74
2021/03/06 02:58:55;;;;;;;12.35;7.63;;;-1.90;99.90;;;;;;5060557;28;20179;-74
2021/03/06 03:01:53;;;;;;;7.40;6.60;;;-1.50;99.90;;;;;;5077478;28;20214;-77
2021/03/06 03:04:35;;;;;;;10.82;6.50;;;-1.30;99.90;;;;;;5060584;28;20656;-75
2021/03/06 03:07:14;;;;;;;9.07;7.55;;;-1.40;99.90;;;;;;5094791;28;20666;-74
2021/03/06 03:09:50;;;;;;;7.85;6.10;;;-1.50;99.90;;;;;;5076568;28;20202;-74
2021/03/06 03:12:22;;;;;;;7.85;6.82;;;-1.50;99.90;;;;;;5094679;28;20202;-74
2021/03/06 03:14:51;;;;;;;9.20;6.40;;;-1.30;99.90;;;;;;5056059;28;20202;-74
2021/03/06 03:17:53;;;;;;;11.82;7.75;;;-1.40;99.90;;;;;;5076732;28;20196;-75
2021/03/06 03:20:24;;;;;;;11.02;6.95;;;-1.60;99.90;;;;;;5049957;28;20232;-74
2021/03/06 03:23:02;;;;;;;9.95;7.60;;;-1.40;99.90;;;;;;5076810;28;20729;-74
2021/03/06 03:25:29;;;;;;;9.75;7.53;;;-1.90;99.90;;;;;;5060360;28;20223;-74
2021/03/06 03:27:56;;;;;;;10.00;7.30;;;-1.40;99.90;;;;;;5094790;28;20160;-74
2021/03/06 03:30:23;;;;;;;15.15;7.68;;;-1.50;99.90;;;;;;5076858;28;20201;-74
2021/03/06 03:32:54;;;;;;;10.70;7.50;;;-1.50;99.90;;;;;;5093957;28;20170;-76
2021/03/06 03:35:23;;;;;;;10.18;7.30;;;-1.50;99.90;;;;;;5094734;28;20167;-74
2021/03/06 03:37:56;;;;;;;8.50;7.57;;;-1.70;99.90;;;;;;5077237;28;20211;-74
2021/03/06 03:40:25;;;;;;;12.77;7.50;;;-1.70;99.90;;;;;;5075797;28;20166;-75
2021/03/06 03:42:56;;;;;;;10.98;7.15;;;-1.80;99.90;;;;;;5092983;28;20207;-74
2021/03/06 03:45:23;;;;;;;10.20;7.50;;;-2.00;99.90;;;;;;5094496;28;20183;-74
2021/03/06 03:47:49;;;;;;;11.00;6.90;;;-1.70;99.90;;;;;;5076532;28;20166;-73
2021/03/06 03:50:18;;;;;;;8.43;6.75;;;-1.60;99.90;;;;;;5059219;28;20168;-74
2021/03/06 03:52:49;;;;;;;7.90;7.10;;;-1.80;99.90;;;;;;5076110;28;20171;-74
2021/03/06 03:55:19;;;;;;;8.70;6.40;;;-2.50;99.90;;;;;;5076001;28;20244;-76
2021/03/06 03:57:48;;;;;;;9.70;7.05;;;-1.90;99.90;;;;;;5076652;28;20202;-75
2021/03/06 04:00:22;;;;;;;7.57;6.78;;;-2.10;99.90;;;;;;5075596;28;20287;-74
2021/03/06 04:02:48;;;;;;;8.02;6.95;;;-2.00;99.90;;;;;;5075781;28;20557;-74
2021/03/06 04:05:17;;;;;;;10.02;7.25;;;-2.10;99.90;;;;;;5075977;28;20171;-76
2021/03/06 04:07:46;;;;;;;9.55;7.78;;;-2.00;99.90;;;;;;5093220;28;20159;-76
2021/03/06 04:10:20;;;;;;;13.23;7.40;;;-1.80;99.90;;;;;;5059148;28;20556;-75
2021/03/06 04:12:47;;;;;;;7.65;6.68;;;-1.90;99.90;;;;;;5075506;28;20738;-74
2021/03/06 04:15:18;;;;;;;7.90;7.13;;;-2.40;99.90;;;;;;5094049;28;20212;-74
2021/03/06 04:17:45;;;;;;;11.50;7.18;;;-1.90;99.90;;;;;;5075892;28;20635;-74
2021/03/06 04:20:29;;;;;;;15.50;7.85;;;-2.10;99.90;;;;;;5078662;28;20586;-74
2021/03/06 04:22:59;;;;;;;8.02;6.88;;;-2.00;99.90;;;;;;5075751;28;20275;-74
2021/03/06 04:25:28;;;;;;;7.40;6.38;;;-2.30;99.90;;;;;;5076179;28;20167;-74
2021/03/06 04:27:56;;;;;;;10.60;6.95;;;-2.40;99.90;;;;;;5075973;28;20206;-75
2021/03/06 04:30:26;;;;;;;9.68;7.20;;;-2.10;99.90;;;;;;5042513;28;20170;-74
2021/03/06 04:32:57;;;;;;;10.40;6.78;;;-2.20;99.90;;;;;;5076288;28;20534;-75
2021/03/06 04:35:27;;;;;;;9.93;8.43;;;-2.20;99.90;;;;;;5060084;28;20160;-74
2021/03/06 04:37:57;;;;;;;12.30;7.60;;;-2.10;99.90;;;;;;5094547;28;20178;-74
2021/03/06 04:40:25;;;;;;;14.77;7.38;;;-2.10;99.90;;;;;;5075967;28;20266;-74
2021/03/06 04:42:54;;;;;;;9.43;7.47;;;-2.00;99.90;;;;;;5094021;28;20731;-74
2021/03/06 04:45:25;;;;;;;8.48;7.60;;;-2.00;99.90;;;;;;5077620;28;20189;-74
2021/03/06 04:47:52;;;;;;;10.98;8.48;;;-2.70;99.90;;;;;;5080282;28;20637;-74
2021/03/06 04:50:18;;;;;;;8.50;6.70;;;-2.20;99.90;;;;;;5063462;28;20182;-74
2021/03/06 04:52:44;;;;;;;10.55;6.97;;;-2.00;99.90;;;;;;5080446;28;20175;-74
2021/03/06 04:55:11;;;;;;;12.93;8.30;;;-2.30;99.90;;;;;;5080471;28;20658;-74
2021/03/06 04:57:39;;;;;;;9.63;7.05;;;-2.30;99.90;;;;;;5062580;28;20175;-74
2021/03/06 05:00:08;;;;;;;8.48;6.60;;;-2.30;99.90;;;;;;5097381;28;20178;-74
2021/03/06 05:02:36;;;;;;;9.82;7.50;;;-2.40;99.90;;;;;;5097372;28;20243;-74
2021/03/06 05:05:08;;;;;;;9.80;7.95;;;-2.30;99.90;;;;;;5062638;28;20168;-73
2021/03/06 05:07:36;;;;;;;11.70;7.78;;;-2.10;99.90;;;;;;5097791;28;20183;-74
2021/03/06 05:10:03;;;;;;;10.25;8.07;;;-2.80;99.90;;;;;;5098058;28;20225;-75
2021/03/06 05:12:32;;;;;;;11.00;7.90;;;-2.20;99.90;;;;;;5078684;28;20210;-74
2021/03/06 05:15:01;;;;;;;11.73;7.95;;;-2.30;99.90;;;;;;5059321;28;20276;-74
2021/03/06 05:17:27;;;;;;;14.15;7.47;;;-2.10;99.90;;;;;;5059547;28;20272;-74
2021/03/06 05:19:53;;;;;;;8.20;7.10;;;-2.80;99.90;;;;;;5041970;28;20271;-75
2021/03/06 05:22:22;;;;;;;10.73;7.93;;;-2.30;99.90;;;;;;5076207;28;20445;-74
2021/03/06 05:24:48;;;;;;;8.43;7.22;;;-2.80;99.90;;;;;;5041744;28;20223;-75
2021/03/06 05:27:18;;;;;;;11.23;7.53;;;-2.80;99.90;;;;;;5058671;28;20163;-74
2021/03/06 05:29:44;;;;;;;7.93;6.78;;;-2.60;99.90;;;;;;5057688;28;20164;-74
2021/03/06 05:32:10;;;;;;;10.27;7.00;;;-2.30;99.90;;;;;;5075694;28;20573;-75
2021/03/06 05:34:39;;;;;;;11.15;7.35;;;-2.30;99.90;;;;;;5076358;28;20430;-74
2021/03/06 05:37:07;;;;;;;8.38;7.43;;;-2.40;99.90;;;;;;5076031;28;20217;-74
2021/03/06 05:39:33;;;;;;;10.02;7.10;;;-2.50;99.90;;;;;;5057918;28;20160;-74
2021/03/06 05:42:06;;;;;;;12.57;9.40;;;-2.40;99.90;;;;;;5062511;28;20233;-74
2021/03/06 05:44:40;;;;;;;11.55;8.10;;;-2.30;99.90;;;;;;5096119;28;20409;-74
2021/03/06 05:47:07;;;;;;;8.98;6.95;;;-2.80;99.90;;;;;;5096418;28;20167;-74
2021/03/06 05:49:36;;;;;;;8.40;7.00;;;-2.40;99.90;;;;;;5078055;28;20243;-74
2021/03/06 05:52:05;;;;;;;12.70;8.50;;;-2.60;99.90;;;;;;5096426;28;20302;-75
2021/03/06 05:54:36;;;;;;;9.80;7.70;;;-2.60;99.90;;;;;;5077690;28;20191;-74
2021/03/06 05:57:04;;;;;;;9.05;8.15;;;-2.60;99.90;;;;;;5095835;28;20210;-75
2021/03/06 05:59:34;;;;;;;8.63;7.65;;;-2.40;99.90;;;;;;5077528;28;20170;-74
2021/03/06 06:02:09;;;;;;;10.07;7.70;;;-2.90;99.90;;;;;;5094903;28;20332;-74
2021/03/06 06:04:36;;;;;;;8.93;7.38;;;-2.50;99.90;;;;;;5077028;28;20167;-75
2021/03/06 06:07:02;;;;;;;8.85;6.95;;;-2.60;99.90;;;;;;5077374;28;20227;-74
2021/03/06 06:09:32;;;;;;;10.75;7.28;;;-2.40;99.90;;;;;;5077245;28;20164;-74
2021/03/06 06:11:59;;;;;;;9.45;7.18;;;-3.00;99.90;;;;;;5040278;28;20684;-74
2021/03/06 06:14:29;;;;;;;10.88;6.95;;;-2.80;99.90;;;;;;5057503;28;20241;-75
2021/03/06 06:16:56;;;;;;;9.27;7.90;;;-2.60;99.90;;;;;;5095030;28;20174;-74
2021/03/06 06:19:23;;;;;;;10.07;7.35;;;-2.40;99.90;;;;;;5095333;28;20270;-74
2021/03/06 06:21:51;;;;;;;8.75;6.40;;;-2.50;99.90;;;;;;5095200;28;20277;-74
2021/03/06 06:24:23;;;;;;;10.48;7.35;;;-2.60;99.90;;;;;;5057415;28;20273;-74
2021/03/06 06:27:05;;;;;;;10.40;7.00;;;-2.40;99.90;;;;;;5074138;28;20255;-74
2021/03/06 06:29:34;;;;;;;8.90;6.28;;;-2.20;99.90;;;;;;5074046;28;20183;-74
2021/03/06 06:32:05;;;;;;;12.40;8.27;;;-2.30;99.90;;;;;;5073956;28;20703;-74
2021/03/06 06:34:35;;;;;;;9.45;7.47;;;-2.80;99.90;;;;;;5074916;28;20686;-74
2021/03/06 06:37:14;;;;;;;10.48;7.50;;;-2.90;99.90;;;;;;5073481;28;20176;-74
2021/03/06 06:39:49;;;;;;;8.00;7.20;;;-2.40;99.90;;;;;;5073746;28;20182;-74
2021/03/06 06:42:15;;;;;;;10.80;7.53;;;-2.30;99.90;;;;;;5067526;28;20260;-74
2021/03/06 06:44:54;;;;;;;10.02;6.72;;;-2.20;99.90;;;;;;5070662;28;20168;-75
2021/03/06 06:47:23;;;;;;;8.32;6.75;;;-2.20;99.90;;;;;;5054429;28;20164;-74
2021/03/06 06:49:53;;;;;;;11.13;6.35;;;-2.30;99.90;;;;;;5053277;28;20183;-74
2021/03/06 06:52:21;;;;;;;8.43;6.75;;;-2.20;99.90;;;;;;5097806;22;20576;-81
2021/03/06 06:54:58;;;;;;;8.43;7.07;;;-2.20;99.90;;;;;;5074636;28;20176;-81
2021/03/06 06:57:32;;;;;;;7.88;6.75;;;-2.10;99.90;;;;;;5040811;28;20241;-81
2021/03/06 07:00:00;;;;;;;7.30;6.50;;;-2.00;99.90;;;;;;5040655;28;20202;-81
2021/03/06 07:02:33;;;;;;;9.10;6.07;;;-1.80;99.90;;;;;;5041084;28;20204;-81
2021/03/06 07:05:07;;;;;;;8.25;6.75;;;-1.70;99.90;;;;;;5074624;28;20301;-81
2021/03/06 07:07:42;;;;;;;11.55;7.60;;;-1.70;99.90;;;;;;5073975;28;20225;-81
2021/03/06 07:10:21;;;;;;;7.10;6.30;;;-1.70;99.90;;;;;;5074528;28;20244;-81
2021/03/06 07:13:01;;;;;;;8.73;6.38;;;-1.50;99.90;;;;;;5074359;28;20663;-81
2021/03/06 07:15:29;;;;;;;7.22;6.18;;;-1.60;99.90;;;;;;5020652;28;20180;-81
2021/03/06 07:18:00;;;;;;;9.13;6.32;;;-1.20;99.90;;;;;;5054301;28;20191;-81
2021/03/06 07:20:34;;;;;;;10.35;6.82;;;-1.40;99.90;;;;;;5020851;28;20177;-81
2021/03/06 07:23:16;;;;;;;8.90;6.47;;;-1.20;99.90;;;;;;5037983;28;20208;-81
2021/03/06 07:25:43;;;;;;;7.85;7.07;;;-1.20;99.90;;;;;;5074120;28;20179;-81
2021/03/06 07:28:13;;;;;;;8.25;6.47;;;-1.00;99.90;;;;;;5056964;28;20210;-81
2021/03/06 07:30:45;;;;;;;11.43;7.38;;;-0.70;99.90;;;;;;5040489;28;20628;-81
2021/03/06 07:33:16;;;;;;;10.70;7.65;;;-0.60;99.90;;;;;;5056580;28;20176;-81
2021/03/06 07:35:43;;;;;;;15.18;9.73;;;-0.60;99.90;;;;;;5056552;28;20171;-81
2021/03/06 07:38:15;;;;;;;13.50;9.15;;;-0.50;99.90;;;;;;5056537;28;20188;-81
2021/03/06 07:40:48;;;;;;;13.40;8.77;;;-0.50;99.90;;;;;;5073903;28;20180;-81
2021/03/06 07:43:23;;;;;;;10.43;8.73;;;-0.40;99.90;;;;;;5039553;28;20576;-81
2021/03/06 07:45:53;;;;;;;13.73;8.80;;;-0.30;99.90;;;;;;5039993;28;20519;-81
2021/03/06 07:48:24;;;;;;;9.43;6.70;;;0.10;99.90;;;;;;5056290;28;20546;-81
2021/03/06 07:50:53;;;;;;;10.65;7.80;;;0.10;99.90;;;;;;5050250;28;20687;-81
2021/03/06 07:53:20;;;;;;;9.48;6.78;;;0.20;99.90;;;;;;5036195;28;20714;-81
2021/03/06 07:55:49;;;;;;;11.13;7.30;;;0.40;99.90;;;;;;5036229;28;20564;-81
2021/03/06 07:58:24;;;;;;;13.50;7.72;;;0.40;99.90;;;;;;5063962;28;20205;-81
2021/03/06 08:00:54;;;;;;;13.00;9.10;;;0.90;99.90;;;;;;5073592;28;20564;-81
2021/03/06 08:03:25;;;;;;;11.75;8.38;;;0.90;99.90;;;;;;5073420;28;20279;-80
2021/03/06 08:05:53;;;;;;;13.73;8.18;;;0.60;99.90;;;;;;5073804;28;20188;-80
2021/03/06 08:08:34;;;;;;;10.98;6.55;;;0.80;99.90;;;;;;5055946;28;20592;-80
2021/03/06 08:11:10;;;;;;;16.25;9.88;;;1.60;99.90;;;;;;5040045;28;20179;-80
2021/03/06 08:13:42;;;;;;;11.45;7.20;;;1.50;99.90;;;;;;5073799;28;20179;-80
2021/03/06 08:19:10;;;;;;;9.23;7.95;;;2.10;99.90;;;;;;5040562;28;20184;-80
2021/03/06 08:21:47;;;;;;;10.23;8.75;;;2.10;99.90;;;;;;5035967;28;20179;-80
2021/03/06 08:24:18;;;;;;;14.52;7.65;;;2.40;99.90;;;;;;5035632;28;20309;-80
2021/03/06 08:27:03;;;;;;;8.57;7.68;;;2.20;99.90;;;;;;5053361;28;20180;-80
2021/03/06 08:29:31;;;;;;;6.80;6.20;;;2.80;99.90;;;;;;5053534;28;20176;-80
2021/03/06 08:32:07;;;;;;;7.28;6.50;;;3.00;99.90;;;;;;5053282;28;20196;-80
2021/03/06 08:34:54;;;;;;;8.75;7.85;;;3.00;99.90;;;;;;5035840;28;20230;-80
2021/03/06 08:37:25;;;;;;;7.47;6.88;;;3.30;99.90;;;;;;5036450;28;20164;-80
2021/03/06 08:39:58;;;;;;;7.60;6.78;;;3.60;99.90;;;;;;5020663;28;20183;-80
2021/03/06 08:42:32;;;;;;;8.82;8.02;;;3.50;99.90;;;;;;5053162;28;20195;-80
2021/03/06 08:45:01;;;;;;;8.15;6.82;;;3.60;99.80;;;;;;5035686;28;20165;-80
2021/03/06 08:47:29;;;;;;;7.57;6.85;;;3.60;99.90;;;;;;5056650;28;20278;-80
2021/03/06 08:49:59;;;;;;;7.85;7.05;;;3.80;99.90;;;;;;5055862;28;20170;-80
2021/03/06 08:52:30;;;;;;;7.40;6.70;;;3.90;99.70;;;;;;5072903;28;20672;-80
2021/03/06 08:55:02;;;;;;;10.35;7.70;;;4.10;99.40;;;;;;5073415;28;20171;-80
2021/03/06 08:57:35;;;;;;;8.32;7.63;;;4.40;99.00;;;;;;5055707;28;20180;-79
2021/03/06 09:00:16;;;;;;;8.85;8.05;;;4.40;98.50;;;;;;5073067;28;20194;-80
2021/03/06 09:02:48;;;;;;;10.15;9.23;;;4.60;97.90;;;;;;5073031;28;20214;-81
2021/03/06 09:05:27;;;;;;;10.30;7.90;;;4.60;97.60;;;;;;5073410;28;20237;-80
2021/03/06 09:07:58;;;;;;;9.95;8.48;;;4.30;97.10;;;;;;5039136;28;20191;-79
2021/03/06 09:10:27;;;;;;;8.10;7.30;;;4.70;97.00;;;;;;5072850;28;20199;-80
2021/03/06 09:13:02;;;;;;;9.18;8.18;;;4.70;96.80;;;;;;5054075;28;20654;-80
2021/03/06 09:15:33;;;;;;;9.23;8.38;;;4.70;96.60;;;;;;5073166;28;20195;-80
2021/03/06 09:18:00;;;;;;;11.32;7.50;;;4.80;97.00;;;;;;5055239;28;20184;-80
2021/03/06 09:20:37;;;;;;;9.18;8.27;;;4.90;97.10;;;;;;5055069;28;20183;-80
2021/03/06 09:23:09;;;;;;;8.63;7.80;;;5.10;97.20;;;;;;5037804;28;20539;-79
2021/03/06 09:25:40;;;;;;;8.27;7.43;;;5.30;96.00;;;;;;5063525;28;20531;-80
2021/03/06 09:28:11;;;;;;;8.93;8.02;;;5.40;95.90;;;;;;5063634;28;20256;-79
2021/03/06 09:30:46;;;;;;;8.55;7.63;;;5.60;95.30;;;;;;5020569;28;20246;-80
2021/03/06 09:33:31;;;;;;;7.82;6.95;;;5.80;94.60;;;;;;5056390;28;20250;-80
2021/03/06 09:36:12;;;;;;;9.23;8.17;;;6.00;94.10;;;;;;5038301;28;20266;-80
2021/03/06 09:38:53;;;;;;;7.75;7.05;;;6.20;93.60;;;;;;5056291;28;20917;-79
2021/03/06 09:41:38;;;;;;;7.70;7.10;;;6.30;92.30;;;;;;5048784;28;20274;-80
2021/03/06 09:44:09;;;;;;;10.45;6.75;;;6.50;92.30;;;;;;5076080;28;20196;-80
2021/03/06 09:46:40;;;;;;;7.10;6.50;;;6.70;92.30;;;;;;5076181;28;20241;-80
2021/03/06 09:49:10;;;;;;;7.05;6.45;;;6.80;91.10;;;;;;5059089;28;20164;-80
2021/03/06 09:51:51;;;;;;;7.18;6.55;;;7.10;91.10;;;;;;5076048;28;20177;-80
2021/03/06 09:54:21;;;;;;;7.00;6.30;;;7.30;90.50;;;;;;5041945;28;20601;-80
2021/03/06 09:56:55;;;;;;;6.63;6.07;;;7.40;89.40;;;;;;5042324;28;20420;-80
2021/03/06 09:59:37;;;;;;;6.03;5.53;;;7.40;83.30;;;;;;5076327;28;20452;-79
2021/03/06 10:02:15;;;;;;;6.17;5.50;;;7.60;84.70;;;;;;5042705;28;20192;-80
2021/03/06 10:04:49;;;;;;;5.72;5.22;;;7.80;82.30;;;;;;5058497;28;20415;-80
2021/03/06 10:07:24;;;;;;;5.90;5.40;;;8.00;82.10;;;;;;5058832;28;20188;-78
2021/03/06 10:09:50;;;;;;;6.40;5.80;;;8.10;81.50;;;;;;5058290;28;20487;-78
2021/03/06 10:12:18;;;;;;;6.20;5.70;;;8.30;79.60;;;;;;5038230;28;20424;-78
2021/03/06 10:14:53;;;;;;;6.40;5.90;;;8.50;78.80;;;;;;5038431;28;20428;-78
2021/03/06 10:17:24;;;;;;;6.90;6.23;;;8.60;74.20;;;;;;5055568;28;20417;-78
2021/03/06 10:19:52;;;;;;;6.70;6.00;;;8.30;73.20;;;;;;5060818;28;20443;-78
2021/03/06 10:22:29;;;;;;;6.20;5.70;;;8.50;73.10;;;;;;5058532;28;20407;-78
2021/03/06 10:25:04;;;;;;;6.13;5.63;;;8.50;72.20;;;;;;5058642;28;20469;-78
2021/03/06 10:27:37;;;;;;;6.27;5.77;;;8.70;71.00;;;;;;5058157;28;20413;-78
2021/03/06 10:30:27;;;;;;;6.83;6.37;;;8.90;72.10;;;;;;5075698;28;20485;-78
2021/03/06 10:33:01;;;;;;;6.47;6.03;;;8.60;69.60;;;;;;5075759;28;20406;-78
2021/03/06 10:35:29;;;;;;;5.73;5.33;;;8.70;68.80;;;;;;5058041;28;20415;-78
2021/03/06 10:37:55;;;;;;;6.50;6.10;;;8.70;70.20;;;;;;5058038;28;20451;-78
2021/03/06 10:40:39;;;;;;;7.47;6.87;;;8.60;69.20;;;;;;5075203;28;20439;-78
2021/03/06 10:43:09;;;;;;;6.67;6.17;;;8.80;71.60;;;;;;5074668;28;20527;-79
2021/03/06 10:45:39;;;;;;;6.33;5.80;;;9.00;69.80;;;;;;5057939;28;20409;-79
2021/03/06 10:48:13;;;;;;;6.10;5.60;;;9.10;69.60;;;;;;5075384;28;20436;-79
2021/03/06 10:50:41;;;;;;;7.45;6.78;;;9.00;69.10;;;;;;5074978;28;20471;-78
2021/03/06 10:53:15;;;;;;;7.20;6.40;;;8.50;69.50;;;;;;5057320;28;20229;-78
2021/03/06 10:55:45;;;;;;;8.17;7.60;;;8.50;71.50;;;;;;5071876;28;20721;-78
2021/03/06 10:58:14;;;;;;;9.13;8.43;;;8.40;73.60;;;;;;5026537;28;20507;-78
2021/03/06 11:00:45;;;;;;;7.73;7.13;;;8.60;74.60;;;;;;5054772;28;20513;-79
2021/03/06 11:03:13;;;;;;;7.97;7.17;;;8.70;75.00;;;;;;5054600;28;20571;-78
2021/03/06 11:05:43;;;;;;;8.87;7.00;;;8.90;74.70;;;;;;5037213;28;20756;-78
2021/03/06 11:08:23;;;;;;;6.33;5.83;;;8.70;74.20;;;;;;5055056;28;20401;-78
2021/03/06 11:10:55;;;;;;;7.43;6.63;;;8.80;75.10;;;;;;5063621;28;20424;-78
2021/03/06 11:13:43;;;;;;;7.83;7.10;;;8.70;75.10;;;;;;5042126;28;20419;-79
2021/03/06 11:16:10;;;;;;;8.93;8.20;;;8.50;75.80;;;;;;5037390;28;20421;-79
2021/03/06 11:18:40;;;;;;;12.57;7.87;;;8.40;76.80;;;;;;5053475;28;20780;-78
2021/03/06 11:21:15;;;;;;;9.17;8.40;;;8.10;78.00;;;;;;5056996;28;20468;-78
2021/03/06 11:23:45;;;;;;;9.10;8.40;;;8.10;79.90;;;;;;5056381;28;20459;-78
2021/03/06 11:26:16;;;;;;;9.57;8.10;;;8.00;81.50;;;;;;5057533;28;20742;-78
2021/03/06 11:28:44;;;;;;;9.43;8.63;;;8.00;80.10;;;;;;5040384;28;20432;-79
2021/03/06 11:31:15;;;;;;;9.90;9.10;;;7.80;80.40;;;;;;5074288;28;20419;-78
2021/03/06 11:33:45;;;;;;;9.23;8.30;;;7.80;82.00;;;;;;5056728;28;20419;-78
2021/03/06 11:36:15;;;;;;;8.03;7.37;;;7.80;81.10;;;;;;5040589;28;20915;-79
2021/03/06 11:38:48;;;;;;;8.33;7.60;;;7.80;82.50;;;;;;5057285;28;20508;-78
2021/03/06 11:41:19;;;;;;;7.90;7.30;;;7.70;79.90;;;;;;5074451;28;20825;-78
2021/03/06 11:43:47;;;;;;;7.80;7.20;;;7.70;80.70;;;;;;5073778;28;20202;-78
2021/03/06 11:46:13;;;;;;;8.57;7.73;;;7.80;84.00;;;;;;5073704;28;20510;-78
2021/03/06 11:48:44;;;;;;;8.23;7.43;;;7.60;81.70;;;;;;5056788;28;20508;-79
2021/03/06 11:51:15;;;;;;;8.87;8.07;;;7.70;83.20;;;;;;5074013;28;20390;-78
2021/03/06 11:53:41;;;;;;;10.57;8.03;;;7.50;82.60;;;;;;5073469;28;20499;-78
2021/03/06 11:56:09;;;;;;;9.48;8.75;;;7.50;83.90;;;;;;5073835;28;20443;-78
2021/03/06 11:58:37;;;;;;;12.60;8.20;;;7.60;84.80;;;;;;5047004;28;20210;-78
2021/03/06 12:01:06;;;;;;;10.20;8.30;;;7.70;84.40;;;;;;5053702;28;20215;-78
2021/03/06 12:03:40;;;;;;;8.25;7.57;;;7.80;84.60;;;;;;5053665;28;20555;-78
2021/03/06 12:06:08;;;;;;;9.87;8.63;;;7.90;84.90;;;;;;5044993;28;20193;-79
2021/03/06 12:08:39;;;;;;;10.52;7.85;;;7.80;84.00;;;;;;5056549;28;20419;-79
2021/03/06 12:11:05;;;;;;;8.55;7.75;;;7.90;84.10;;;;;;5072231;28;20663;-78
2021/03/06 12:13:40;;;;;;;11.20;9.60;;;8.00;84.20;;;;;;5057020;28;20303;-78
2021/03/06 12:16:11;;;;;;;17.30;14.20;;;8.10;82.00;;;;;;5039182;28;20779;-80
2021/03/06 12:18:39;;;;;;;11.50;10.20;;;8.00;83.60;;;;;;5073625;28;20481;-80
2021/03/06 12:21:12;;;;;;;10.67;9.67;;;8.00;83.30;;;;;;5055769;28;20463;-80
2021/03/06 12:23:40;;;;;;;11.63;10.65;;;8.10;83.30;;;;;;5073695;28;20462;-80
2021/03/06 12:26:06;;;;;;;9.68;8.30;;;8.10;81.80;;;;;;5073154;28;20180;-80
2021/03/06 12:28:37;;;;;;;9.60;8.60;;;8.20;83.20;;;;;;5073617;28;20197;-80
2021/03/06 12:31:10;;;;;;;8.23;7.63;;;8.10;82.30;;;;;;5055956;28;20212;-80
2021/03/06 12:33:38;;;;;;;9.10;8.20;;;7.90;81.20;;;;;;5073366;28;20735;-81
2021/03/06 12:36:08;;;;;;;7.68;6.93;;;7.90;82.40;;;;;;5035544;28;20456;-81
2021/03/06 12:38:34;;;;;;;7.65;6.95;;;8.00;82.10;;;;;;5053364;28;20236;-79
2021/03/06 12:41:05;;;;;;;9.80;7.30;;;7.90;80.30;;;;;;5052747;28;20292;-79
2021/03/06 12:43:33;;;;;;;8.35;7.55;;;8.00;80.80;;;;;;5053340;28;20495;-79
2021/03/06 12:46:01;;;;;;;11.30;7.80;;;7.90;80.70;;;;;;5053470;28;20519;-79
2021/03/06 12:48:30;;;;;;;8.43;7.40;;;7.90;81.80;;;;;;5053360;28;20474;-81
2021/03/06 12:50:56;;;;;;;9.35;8.40;;;7.90;82.30;;;;;;5035912;28;20195;-81
2021/03/06 12:53:22;;;;;;;11.77;6.78;;;8.00;83.40;;;;;;5035646;28;20233;-81
2021/03/06 12:55:49;;;;;;;7.03;6.53;;;8.20;83.00;;;;;;5036129;28;20213;-81
2021/03/06 12:58:17;;;;;;;9.13;7.57;;;8.30;80.20;;;;;;5052377;28;20437;-80
2021/03/06 13:00:45;;;;;;;11.30;8.03;;;8.30;79.00;;;;;;5053127;28;20514;-80
2021/03/06 13:03:16;;;;;;;8.57;7.70;;;8.40;80.10;;;;;;5058145;28;20463;-81
2021/03/06 13:05:46;;;;;;;7.90;7.20;;;8.20;79.90;;;;;;5074902;28;20744;-81
2021/03/06 13:08:17;;;;;;;9.03;7.03;;;8.30;79.80;;;;;;5059550;28;20418;-80
2021/03/06 13:10:43;;;;;;;8.90;7.27;;;8.30;80.50;;;;;;5059781;28;20481;-80